Rugby, ND

5:44 AM CST on February 14, 2016 (GMT -0600)
Rugby Municipal | | Change Station
CLOSE
Current Station
Airport
Location: Rugby,
Elevation: 1549 ft
Nearby Weather Stations
Active Advisory: Winter Weather Advisory Active Notice: Record Report

Elev 1549 ft 48.39 °N, 100.02 °W | Updated 2 hours ago

Overcast
Overcast
14 °F
Feels Like 3 °F
N
8
Wind Variable Wind from SSE

Today
High -- | Low -- °F
--% Chance of Precip.
Yesterday
High -- | Low -- °F
Precip. -- in
Pressure 29.75 in
Visibility 1.8 miles
Clouds Overcast 200 ft
Windchill 3 °F
Dew Point 12 °F
Humidity 93%
Rainfall 0.00 in
Snow Depth Not available.
7:49 AM 5:59 PM
Waxing Crescent, 41% visible
METAR KRUG 140935Z AUTO 16007KT 1 3/4SM -SN OVC002 M10/M11 A2975 RMK AO2
Pressure 29.75 in
Visibility 1.8 miles
Clouds Overcast 200 ft
Windchill 3 °F
Dew Point 12 °F
Humidity 93%
Rainfall 0.00 in
Snow Depth Not available.
7:49 AM 5:59 PM
Waxing Crescent, 41% visible
METAR KRUG 140935Z AUTO 16007KT 1 3/4SM -SN OVC002 M10/M11 A2975 RMK AO2

10-Day Weather Forecast

Almanac

Astronomy

Feb. 14, 2016 Rise Set
Actual Time
Civil Twilight
Nautical Twilight
Astronomical Twilight
Moon
Length of Visible Light
Length of Day
Tomorrow will be .
, % of the Moon is Illuminated

Today's Extremes

State Highs State Lows

Community

WunderPhotos

Upload Photos

1,892,766 photos uploaded!

WunderBlog® & News

Nearby

Air Quality

  Air Quality AQ Index Pollutant
Not available.

Snow Depth

Station Depth Elevation

Earthquake Activity

City Distance Mag. Time & Date
Minimum magnitude displayed is 2.5.

Coastal Water Temperatures

Place Temperature

Stations

Nearby Weather Stations

Station Location Temp. Windchill Dew Point Humidity Wind Precip. Elev Updated Type
                   

Watches & Warnings

Winter Weather Advisory
Issued: 2:58 AM CST Feb. 14, 2016 – National Weather Service

... Winter Weather Advisory now in effect until noon CST today...

The Winter Weather Advisory is now in effect until noon CST
today.

* Expect snow to end during the morning... with areas of freezing
drizzle to develop... diminishing around noon.

* Additional snow accumulations of up to 2 inches and ice
accumulations of a glaze are expected.

* Look for reduced visibilities at times.

* Plan on slippery Road conditions.

Precautionary/preparedness actions...

A Winter Weather Advisory means that periods of snow... sleet or
freezing rain will cause travel difficulties. Be prepared for
slippery roads and limited visibilities... and use caution while
driving. The latest Road conditions for the state you are calling
from can be obtained by calling 5 1 1.


Jv/ayd